logo
Search for airport 
image banner adimage banner adimage banner ad
image banner ad

SCVM - Vina Del Mar

Located in Vina Del Mar, Chile

ICAO - SCVM, IATA - KNA

Data provided by Airmate  

General information

Coordinates: S32°56'59" W71°28'43"
Elevation is 461 feet MSL.
Magnetic variation is 2° East
Rated:
View ratings:
[VIEW]
View others Airports in Valparaíso

Operational data

Special qualification required
Current time UTC:
Current local time:
Weather
METAR: SCVM 231600Z 32011KT 290V350 CAVOK 23/14 Q1016
View NOTAMs / SUP AIP / TFR affecting this airport [VIEW]
Communications frequencies: [VIEW]

Runways:

RWY identifierQFULength (ft)Width (ft)SurfaceLDA (ft)
0552°574498ASPH
23232°574498ASPH

Airport contact information

Address: Vina Del Mar Chile

Other aviation service providers

Aviation club (not for profit)

Club Aéreo Naval

Club Aéreo Naval
presidente@clubaereonaval.com+56323426563
+56999104413

Club Aéreo Planeadores Valparaíso

Club Aéreo Planeadores Valparaíso

Satellite view of SCVM